Time;durP1;ratioP1;P1;durP2;ratioP2;P2;SDS_P1;SDS_P2;PMS_P1;PMS_P2;Temp;Humidity;BMP_temperature;BMP_pressure;BME280_temperature;BME280_humidity;BME280_pressure;Samples;Min_cycle;Max_cycle;Signal;HPM_P1;HPM_P2
2023/12/31 00:00:33;;;;;;;8.23;7.35;;;;;;;6.58;100.00;62680.41;5108438;28;20215;-79
2023/12/31 00:03:01;;;;;;;9.00;6.63;;;;;;;6.64;100.00;62681.53;5110075;28;20203;-78
2023/12/31 00:05:28;;;;;;;9.32;7.25;;;;;;;6.69;100.00;62684.19;5110477;28;20242;-79
2023/12/31 00:07:55;;;;;;;9.45;7.97;;;;;;;6.68;100.00;62683.13;5107463;28;20199;-78
2023/12/31 00:10:22;;;;;;;8.90;8.00;;;;;;;6.76;100.00;62691.41;5108306;28;20212;-79
2023/12/31 00:12:49;;;;;;;12.57;9.32;;;;;;;6.71;100.00;62688.25;5109088;28;20196;-79
2023/12/31 00:15:16;;;;;;;11.20;9.05;;;;;;;6.77;100.00;62697.50;5106864;28;20424;-80
2023/12/31 00:17:43;;;;;;;10.55;7.25;;;;;;;6.77;100.00;62691.91;5108707;28;20203;-78
2023/12/31 00:20:12;;;;;;;9.50;7.60;;;;;;;6.48;100.00;62667.06;5114559;28;20223;-77
2023/12/31 00:22:39;;;;;;;12.05;8.43;;;;;;;6.50;100.00;62669.13;5110989;28;20200;-79
2023/12/31 00:25:06;;;;;;;10.93;9.18;;;;;;;6.43;100.00;62661.91;5112322;28;20482;-77
2023/12/31 00:27:34;;;;;;;12.80;8.90;;;;;;;6.44;100.00;62658.41;5111969;28;20218;-78
2023/12/31 00:30:01;;;;;;;10.55;8.68;;;;;;;6.42;100.00;62658.84;5110471;28;20218;-78
2023/12/31 00:32:27;;;;;;;13.30;9.05;;;;;;;6.37;100.00;62648.66;5110043;28;20192;-78
2023/12/31 00:34:54;;;;;;;11.10;9.23;;;;;;;6.39;100.00;62658.28;5111657;28;20207;-78
2023/12/31 00:37:23;;;;;;;15.45;9.10;;;;;;;6.38;100.00;62656.75;5112814;28;20229;-78
2023/12/31 00:39:50;;;;;;;10.18;8.55;;;;;;;6.33;100.00;62646.53;5110324;28;20258;-78
2023/12/31 00:42:17;;;;;;;11.75;8.63;;;;;;;6.28;100.00;62641.88;5110568;28;20196;-79
2023/12/31 00:44:44;;;;;;;12.25;7.57;;;;;;;6.05;100.00;62620.72;5110596;28;20239;-80
2023/12/31 00:47:11;;;;;;;10.43;9.20;;;;;;;6.00;100.00;62620.09;5110213;28;20263;-78
2023/12/31 00:49:39;;;;;;;17.15;9.65;;;;;;;5.87;100.00;62599.63;5109775;28;20444;-77
2023/12/31 00:52:07;;;;;;;13.85;9.40;;;;;;;5.75;100.00;62589.78;5112287;28;20523;-77
2023/12/31 00:54:35;;;;;;;13.85;10.13;;;;;;;5.73;100.00;62585.19;5109601;28;20211;-77
2023/12/31 00:57:02;;;;;;;16.42;10.63;;;;;;;5.73;100.00;62587.72;5108116;28;20527;-77
2023/12/31 00:59:29;;;;;;;13.45;11.35;;;;;;;5.68;100.00;62580.03;5109911;28;20222;-77
2023/12/31 01:01:56;;;;;;;13.98;9.73;;;;;;;5.64;100.00;62580.97;5107975;28;20203;-77
2023/12/31 01:04:23;;;;;;;13.05;9.70;;;;;;;5.49;100.00;62560.97;5109972;28;20236;-77
2023/12/31 01:06:50;;;;;;;16.52;9.93;;;;;;;5.35;100.00;62549.09;5111098;28;20234;-77
2023/12/31 01:09:17;;;;;;;15.55;10.07;;;;;;;5.26;100.00;62539.31;5110324;28;20551;-77
2023/12/31 01:11:45;;;;;;;18.33;11.10;;;;;;;5.33;100.00;62549.53;5108115;28;20485;-77
2023/12/31 01:14:14;;;;;;;15.00;10.00;;;;;;;5.28;100.00;62544.41;5107549;28;20219;-77
2023/12/31 01:16:41;;;;;;;13.25;9.55;;;;;;;5.31;100.00;62537.41;5107743;28;20274;-78
2023/12/31 01:19:08;;;;;;;17.35;10.20;;;;;;;5.34;100.00;62547.53;5109114;28;20220;-78
2023/12/31 01:21:35;;;;;;;17.90;11.10;;;;;;;5.39;100.00;62555.72;5112810;28;20218;-77
2023/12/31 01:24:02;;;;;;;16.25;11.75;;;;;;;5.43;100.00;62559.88;5106949;28;20231;-78
2023/12/31 01:26:29;;;;;;;15.98;10.75;;;;;;;5.45;100.00;62558.88;5110435;28;20200;-77
2023/12/31 01:28:57;;;;;;;17.55;11.18;;;;;;;5.38;100.00;62554.72;5107352;28;20203;-77
2023/12/31 01:31:24;;;;;;;16.73;11.48;;;;;;;5.42;100.00;62556.28;5106902;28;20250;-77
2023/12/31 01:33:51;;;;;;;17.90;10.48;;;;;;;5.31;100.00;62546.97;5107760;28;20238;-78
2023/12/31 01:36:20;;;;;;;13.75;10.07;;;;;;;5.23;100.00;62536.72;5111415;28;20191;-78
2023/12/31 01:38:47;;;;;;;18.83;11.48;;;;;;;5.18;100.00;62531.56;5108380;28;20202;-78
2023/12/31 01:41:13;;;;;;;15.55;10.05;;;;;;;5.19;100.00;62537.16;5108784;28;20188;-76
2023/12/31 01:43:40;;;;;;;16.67;12.15;;;;;;;5.20;100.00;62533.63;5107586;28;20203;-77
2023/12/31 01:46:10;;;;;;;17.75;12.02;;;;;;;5.14;100.00;62524.94;5107645;28;20223;-77
2023/12/31 01:48:37;;;;;;;18.88;10.30;;;;;;;5.03;100.00;62513.09;5108276;28;20196;-79
2023/12/31 01:51:05;;;;;;;15.27;10.93;;;;;;;4.98;100.00;62507.94;5113537;28;20196;-78
2023/12/31 01:53:32;;;;;;;18.00;11.20;;;;;;;4.91;100.00;62505.78;5107986;28;20192;-78
2023/12/31 01:55:59;;;;;;;17.15;11.40;;;;;;;4.87;100.00;62499.66;5108780;28;20220;-78
2023/12/31 01:58:26;;;;;;;15.00;11.13;;;;;;;4.89;100.00;62498.66;5109417;28;20200;-78
2023/12/31 02:00:53;;;;;;;17.45;11.68;;;;;;;4.82;100.00;62491.47;5108913;28;20228;-77
2023/12/31 02:03:21;;;;;;;16.63;11.77;;;;;;;4.81;100.00;62490.97;5108900;28;20196;-79
2023/12/31 02:05:48;;;;;;;16.77;10.65;;;;;;;4.85;100.00;62497.09;5107904;28;20228;-79
2023/12/31 02:08:15;;;;;;;18.20;12.15;;;;;;;4.85;100.00;62497.09;5111143;28;20200;-78
2023/12/31 02:10:42;;;;;;;12.35;10.45;;;;;;;4.90;100.00;62502.75;5108172;28;20287;-78
2023/12/31 02:13:09;;;;;;;19.00;10.88;;;;;;;4.94;100.00;62503.81;5108625;28;20197;-77
2023/12/31 02:15:36;;;;;;;13.13;9.15;;;;;;;5.04;100.00;62514.63;5108216;28;20413;-80
2023/12/31 02:18:03;;;;;;;14.93;9.30;;;;;;;5.06;100.00;62516.19;5107695;28;20219;-79
2023/12/31 02:20:32;;;;;;;13.30;8.95;;;;;;;5.10;100.00;62520.31;5111018;28;20230;-78
2023/12/31 02:22:59;;;;;;;12.02;8.48;;;;;;;5.15;100.00;62528.50;5110725;28;20200;-80
2023/12/31 02:25:28;;;;;;;12.75;8.98;;;;;;;5.24;100.00;62540.28;5108366;28;20242;-78
2023/12/31 02:27:56;;;;;;;12.20;8.50;;;;;;;5.32;100.00;62540.44;5107476;28;20258;-78
2023/12/31 02:30:23;;;;;;;14.18;8.60;;;;;;;5.36;100.00;62550.13;5108666;28;20219;-79
2023/12/31 02:32:50;;;;;;;11.57;8.32;;;;;;;5.37;100.00;62553.66;5109438;28;20192;-78
2023/12/31 02:35:17;;;;;;;16.58;11.95;;;;;;;5.40;100.00;62556.25;5108964;28;20220;-79
2023/12/31 02:37:44;;;;;;;12.68;8.80;;;;;;;5.44;100.00;62557.84;5113973;28;20192;-78
2023/12/31 02:40:11;;;;;;;10.32;6.90;;;;;;;5.36;100.00;62552.66;5109258;28;20219;-78
2023/12/31 02:42:38;;;;;;;7.45;6.75;;;;;;;5.37;100.00;62548.63;5107457;28;20238;-78
2023/12/31 02:45:07;;;;;;;10.18;6.50;;;;;;;5.32;100.00;62546.00;5107421;28;20299;-78
2023/12/31 02:47:36;;;;;;;21.23;13.30;;;;;;;5.27;100.00;62540.31;5110288;28;20188;-78
2023/12/31 02:50:03;;;;;;;18.00;11.55;;;;;;;5.26;100.00;62537.31;5110986;28;20254;-78
2023/12/31 02:52:30;;;;;;;19.27;11.68;;;;;;;5.25;100.00;62541.31;5110415;28;20406;-77
2023/12/31 02:55:00;;;;;;;16.60;9.10;;;;;;;5.20;100.00;62535.63;5109096;28;20216;-79
2023/12/31 02:57:29;;;;;;;7.55;6.85;;;;;;;5.16;100.00;62526.50;5107596;28;20215;-78
2023/12/31 02:59:56;;;;;;;8.95;5.15;;;;;;;5.08;100.00;62516.22;5109068;28;20253;-78
2023/12/31 03:02:24;;;;;;;6.35;5.40;;;;;;;5.03;100.00;62518.13;5108469;28;20318;-78
2023/12/31 03:04:51;;;;;;;4.82;4.13;;;;;;;5.10;100.00;62517.78;5109466;28;20536;-78
2023/12/31 03:07:18;;;;;;;4.82;4.43;;;;;;;5.04;100.00;62517.16;5110565;28;20218;-80
2023/12/31 03:09:45;;;;;;;4.50;4.10;;;;;;;4.98;100.00;62507.94;5106832;28;20224;-79
2023/12/31 03:12:12;;;;;;;6.55;4.88;;;;;;;4.92;100.00;62504.81;5108140;28;20191;-77
2023/12/31 03:14:39;;;;;;;6.05;5.18;;;;;;;4.90;100.00;62505.25;5105341;28;20222;-77
2023/12/31 03:17:06;;;;;;;10.15;6.85;;;;;;;4.98;100.00;62513.00;5105136;28;20399;-77
2023/12/31 03:19:36;;;;;;;9.20;6.05;;;;;;;4.93;100.00;62505.31;5105526;28;20277;-77
2023/12/31 03:22:04;;;;;;;6.95;6.20;;;;;;;4.92;100.00;62504.81;5110601;28;20192;-77
2023/12/31 03:24:31;;;;;;;7.05;6.35;;;;;;;4.95;100.00;62507.38;5106757;28;20238;-77
2023/12/31 03:26:58;;;;;;;7.72;5.70;;;;;;;4.91;100.00;62500.72;5105706;28;20200;-77
2023/12/31 03:29:26;;;;;;;7.45;5.90;;;;;;;4.88;100.00;62500.69;5107824;28;20220;-77
2023/12/31 03:31:54;;;;;;;8.30;6.70;;;;;;;4.85;100.00;62492.53;5106395;28;20196;-77
2023/12/31 03:34:20;;;;;;;7.43;6.47;;;;;;;4.85;100.00;62494.56;5106636;28;20215;-77
2023/12/31 03:36:49;;;;;;;6.85;4.88;;;;;;;4.84;100.00;62496.06;5107762;28;20374;-76
2023/12/31 03:39:15;;;;;;;3.75;3.45;;;;;;;4.93;100.00;62503.31;5111445;28;20524;-77
2023/12/31 03:41:42;;;;;;;3.65;3.35;;;;;;;4.99;100.00;62516.56;5105195;28;20405;-78
2023/12/31 03:44:09;;;;;;;4.22;3.92;;;;;;;5.03;100.00;62516.13;5105755;28;20214;-77
2023/12/31 03:46:36;;;;;;;5.10;3.42;;;;;;;5.04;100.00;62514.63;5106354;28;20232;-79
2023/12/31 03:49:03;;;;;;;3.85;3.55;;;;;;;5.05;100.00;62520.19;5106311;28;20249;-77
2023/12/31 03:51:30;;;;;;;4.40;4.05;;;;;;;5.11;100.00;62523.88;5106827;28;20195;-77
2023/12/31 03:53:59;;;;;;;4.28;3.53;;;;;;;5.16;100.00;62526.50;5112094;28;20204;-77
2023/12/31 03:56:26;;;;;;;3.38;3.17;;;;;;;5.09;100.00;62517.25;5109696;28;20272;-77
2023/12/31 03:58:52;;;;;;;3.20;3.00;;;;;;;4.96;100.00;62511.44;5109564;28;20196;-78
2023/12/31 04:01:19;;;;;;;3.60;3.40;;;;;;;5.01;100.00;62508.50;5109109;28;20199;-77
2023/12/31 04:03:47;;;;;;;3.42;2.78;;;;;;;5.06;100.00;62518.69;5114163;28;20198;-79
2023/12/31 04:06:15;;;;;;;2.40;2.30;;;;;;;5.13;100.00;62526.44;5110129;28;20227;-77
2023/12/31 04:08:41;;;;;;;3.00;2.80;;;;;;;5.21;100.00;62532.13;5113087;28;20188;-77
2023/12/31 04:11:10;;;;;;;2.92;2.83;;;;;;;5.15;100.00;62525.44;5113438;28;20192;-77
2023/12/31 04:13:37;;;;;;;3.70;3.03;;;;;;;5.17;100.00;62527.50;5110396;28;20227;-77
2023/12/31 04:16:05;;;;;;;2.95;2.58;;;;;;;5.24;100.00;62537.25;5108643;28;20196;-78
2023/12/31 04:18:32;;;;;;;2.83;2.63;;;;;;;5.21;100.00;62537.19;5108333;28;20195;-78
2023/12/31 04:20:59;;;;;;;3.30;3.00;;;;;;;5.12;100.00;62522.38;5109609;28;20220;-77
2023/12/31 04:23:26;;;;;;;2.90;2.70;;;;;;;5.06;100.00;62519.22;5109311;28;20462;-77
2023/12/31 04:25:53;;;;;;;4.13;2.90;;;;;;;5.11;100.00;62526.88;5111803;28;20235;-77
2023/12/31 04:28:21;;;;;;;2.95;2.75;;;;;;;5.00;100.00;62515.06;5110000;28;20204;-77
2023/12/31 04:30:48;;;;;;;2.80;2.70;;;;;;;4.95;100.00;62507.38;5107921;28;20266;-77
2023/12/31 04:33:15;;;;;;;3.10;2.70;;;;;;;4.89;100.00;62501.72;5108255;28;20207;-77
2023/12/31 04:35:42;;;;;;;3.17;2.97;;;;;;;4.82;100.00;62494.50;5109510;28;20216;-78
2023/12/31 04:38:09;;;;;;;3.28;3.08;;;;;;;4.84;100.00;62496.06;5110445;28;20208;-76
2023/12/31 04:40:36;;;;;;;2.90;2.70;;;;;;;4.87;100.00;62501.69;5112786;28;20215;-78
2023/12/31 04:43:03;;;;;;;3.00;2.70;;;;;;;4.85;100.00;62494.56;5110431;28;20208;-77
2023/12/31 04:45:31;;;;;;;3.97;2.80;;;;;;;4.84;100.00;62496.56;5110266;28;20257;-77
2023/12/31 04:47:58;;;;;;;3.17;2.90;;;;;;;4.85;100.00;62495.06;5108135;28;20192;-77
2023/12/31 04:50:25;;;;;;;2.70;2.50;;;;;;;4.85;100.00;62500.13;5108643;28;20216;-77
2023/12/31 04:52:51;;;;;;;2.55;2.42;;;;;;;4.82;100.00;62494.50;5111030;28;20203;-77
2023/12/31 04:55:18;;;;;;;3.10;2.38;;;;;;;4.78;100.00;62489.88;5114611;28;20224;-77
2023/12/31 04:57:45;;;;;;;3.53;2.70;;;;;;;4.78;100.00;62489.88;5109749;28;20264;-77
2023/12/31 05:00:14;;;;;;;3.13;2.88;;;;;;;4.77;100.00;62488.84;5109330;28;20216;-77
2023/12/31 05:02:42;;;;;;;3.28;2.95;;;;;;;4.67;100.00;62477.06;5108521;28;20196;-77
2023/12/31 05:05:09;;;;;;;3.25;3.05;;;;;;;4.63;100.00;62475.47;5108814;28;20220;-78
2023/12/31 05:07:36;;;;;;;2.80;2.60;;;;;;;4.56;100.00;62465.22;5111074;28;20196;-77
2023/12/31 05:10:04;;;;;;;3.30;3.10;;;;;;;4.55;100.00;62466.72;5109809;28;20605;-78
2023/12/31 05:12:31;;;;;;;2.85;2.65;;;;;;;4.45;100.00;62453.91;5109191;28;20199;-78
2023/12/31 05:14:58;;;;;;;4.05;3.00;;;;;;;4.41;100.00;62452.31;5109690;28;20265;-78
2023/12/31 05:17:25;;;;;;;3.13;2.83;;;;;;;4.40;100.00;62456.81;5108741;28;20250;-78
2023/12/31 05:19:55;;;;;;;2.72;2.50;;;;;;;4.33;100.00;62444.59;5109824;28;20203;-78
2023/12/31 05:22:22;;;;;;;2.72;2.53;;;;;;;4.30;100.00;62438.47;5115796;28;20218;-77
2023/12/31 05:24:49;;;;;;;3.78;3.17;;;;;;;4.25;100.00;62436.34;5109920;28;20219;-77
2023/12/31 05:27:16;;;;;;;3.30;3.00;;;;;;;4.18;100.00;62428.63;5109179;28;20242;-79
2023/12/31 05:29:41;;;;;;;3.05;2.85;;;;;;;4.14;100.00;62419.50;5109737;28;20220;-79
2023/12/31 05:32:08;;;;;;;4.40;3.47;;;;;;;4.04;100.00;62417.25;5109317;28;20207;-76
2023/12/31 05:34:35;;;;;;;4.10;2.80;;;;;;;4.02;100.00;62417.22;5109957;28;20224;-77
2023/12/31 05:37:04;;;;;;;3.55;3.25;;;;;;;3.98;100.00;62408.06;5117680;28;20219;-77
2023/12/31 05:39:30;;;;;;;3.40;3.20;;;;;;;3.88;100.00;62398.31;5112420;28;20212;-77
2023/12/31 05:41:57;;;;;;;3.53;3.22;;;;;;;3.90;100.00;62395.31;5108523;28;20515;-78
2023/12/31 05:44:24;;;;;;;5.15;3.83;;;;;;;3.79;100.00;62389.03;5108797;28;20261;-78
2023/12/31 05:46:51;;;;;;;4.18;3.83;;;;;;;3.72;100.00;62381.84;5109054;28;20555;-78
2023/12/31 05:49:18;;;;;;;5.55;3.95;;;;;;;3.69;100.00;62376.25;5109693;28;20215;-79
2023/12/31 05:51:45;;;;;;;4.95;4.43;;;;;;;3.70;100.00;62371.72;5109348;28;20234;-78
2023/12/31 05:54:13;;;;;;;5.57;4.97;;;;;;;3.69;100.00;62378.75;5111424;28;20275;-78
2023/12/31 05:56:40;;;;;;;4.65;3.90;;;;;;;3.77;100.00;62386.97;5111167;28;20218;-77
2023/12/31 05:59:07;;;;;;;4.20;3.90;;;;;;;3.76;100.00;62385.44;5108766;28;20255;-77
2023/12/31 06:01:34;;;;;;;4.65;4.10;;;;;;;3.73;100.00;62380.34;5107598;28;20192;-79
2023/12/31 06:04:01;;;;;;;6.18;4.25;;;;;;;3.73;100.00;62379.84;5108725;28;20220;-78
2023/12/31 06:06:28;;;;;;;5.00;4.50;;;;;;;3.81;100.00;62393.63;5109775;28;20224;-79
2023/12/31 06:08:55;;;;;;;3.63;3.33;;;;;;;3.78;100.00;62384.97;5111283;28;20295;-78
2023/12/31 06:11:23;;;;;;;3.55;3.05;;;;;;;3.82;100.00;62392.13;5108356;28;20196;-79
2023/12/31 06:13:50;;;;;;;7.10;3.55;;;;;;;3.88;100.00;62398.31;5110389;28;20267;-79
2023/12/31 06:16:17;;;;;;;4.97;4.35;;;;;;;3.87;100.00;62394.75;5107135;28;20238;-78
2023/12/31 06:18:43;;;;;;;4.70;4.28;;;;;;;3.84;100.00;62393.66;5106783;28;20200;-79
2023/12/31 06:21:10;;;;;;;5.07;4.22;;;;;;;3.87;100.00;62397.25;5108801;28;20412;-78
2023/12/31 06:23:37;;;;;;;4.32;3.95;;;;;;;3.90;100.00;62402.84;5109581;28;20218;-77
2023/12/31 06:26:04;;;;;;;5.22;4.72;;;;;;;3.95;100.00;62407.50;5107514;28;20265;-78
2023/12/31 06:28:33;;;;;;;6.43;4.95;;;;;;;4.02;100.00;62412.69;5108903;28;20194;-78
2023/12/31 06:30:59;;;;;;;7.25;5.40;;;;;;;4.06;100.00;62414.28;5108198;28;20233;-79
2023/12/31 06:33:26;;;;;;;6.47;4.88;;;;;;;4.15;100.00;62420.50;5107628;28;20200;-78
2023/12/31 06:35:53;;;;;;;7.22;4.53;;;;;;;4.22;100.00;62427.72;5107776;28;20234;-78
2023/12/31 06:38:20;;;;;;;4.32;3.90;;;;;;;4.27;100.00;62435.38;5110819;28;20249;-77
2023/12/31 06:40:47;;;;;;;4.53;4.07;;;;;;;4.29;100.00;62443.00;5107525;28;20215;-77
2023/12/31 06:43:14;;;;;;;7.65;4.20;;;;;;;4.18;100.00;62429.16;5107826;28;20204;-77
2023/12/31 06:45:43;;;;;;;3.85;3.55;;;;;;;4.39;100.00;62447.72;5107724;28;20220;-78
2023/12/31 06:48:10;;;;;;;6.07;3.85;;;;;;;4.49;100.00;62460.53;5106698;28;20198;-78
2023/12/31 06:50:37;;;;;;;4.50;4.13;;;;;;;4.44;100.00;62455.91;5107894;28;20235;-78
2023/12/31 06:53:05;;;;;;;4.63;4.32;;;;;;;4.50;100.00;62462.06;5109627;28;20223;-78
2023/12/31 06:55:32;;;;;;;5.40;4.90;;;;;;;4.56;100.00;62465.22;5107015;28;20286;-78
2023/12/31 06:57:59;;;;;;;6.03;5.05;;;;;;;4.56;100.00;62465.75;5107421;28;20210;-78
2023/12/31 07:00:25;;;;;;;6.80;5.50;;;;;;;4.52;100.00;62461.63;5108521;28;20215;-77
2023/12/31 07:02:54;;;;;;;7.22;5.18;;;;;;;4.60;100.00;62471.88;5107162;28;20255;-79
2023/12/31 07:05:22;;;;;;;7.88;5.35;;;;;;;4.72;100.00;62482.22;5108824;28;20245;-78
2023/12/31 07:07:50;;;;;;;9.73;6.05;;;;;;;4.58;100.00;62472.31;5111135;28;20241;-78
2023/12/31 07:10:17;;;;;;;8.30;5.90;;;;;;;4.37;100.00;62446.19;5106197;28;20219;-78
2023/12/31 07:12:44;;;;;;;8.48;7.57;;;;;;;4.28;100.00;62434.41;5106583;28;20225;-78
2023/12/31 07:15:11;;;;;;;13.55;10.32;;;;;;;4.38;100.00;62452.25;5108113;28;20261;-78
2023/12/31 07:17:37;;;;;;;14.27;8.75;;;;;;;4.54;100.00;62465.69;5106392;28;20447;-79
2023/12/31 07:20:08;;;;;;;13.77;9.52;;;;;;;4.83;100.00;62495.03;5106410;28;20218;-78
2023/12/31 07:22:35;;;;;;;13.60;8.60;;;;;;;5.07;100.00;62517.22;5108863;28;20188;-79
2023/12/31 07:25:01;;;;;;;12.13;8.48;;;;;;;5.29;100.00;62542.91;5108368;28;20223;-78
2023/12/31 07:27:29;;;;;;;12.80;8.68;;;;;;;5.49;100.00;62557.94;5106800;28;20234;-77
2023/12/31 07:29:56;;;;;;;13.23;9.88;;;;;;;5.61;100.00;62578.41;5106881;28;20226;-77
2023/12/31 07:32:23;;;;;;;12.82;10.02;;;;;;;5.60;100.00;62574.31;5109022;28;20200;-78
2023/12/31 07:34:50;;;;;;;14.38;9.57;;;;;;;5.62;100.00;62576.38;5107029;28;20223;-77
2023/12/31 07:37:19;;;;;;;14.13;11.23;;;;;;;5.51;100.00;62565.06;5109124;28;20239;-77
2023/12/31 07:39:46;;;;;;;12.93;10.25;;;;;;;5.25;100.00;62538.78;5108740;28;20218;-78
2023/12/31 07:42:14;;;;;;;14.38;10.52;;;;;;;5.19;100.00;62529.56;5107218;28;20279;-78
2023/12/31 07:44:41;;;;;;;15.32;10.95;;;;;;;5.20;100.00;62530.59;5108036;28;20544;-78
2023/12/31 07:47:08;;;;;;;16.95;11.90;;;;;;;5.27;100.00;62540.84;5108049;28;20227;-79
2023/12/31 07:49:34;;;;;;;14.05;10.80;;;;;;;5.37;100.00;62553.66;5106108;28;20216;-79
2023/12/31 07:52:01;;;;;;;13.48;11.55;;;;;;;5.53;100.00;62569.63;5110019;28;20202;-79
2023/12/31 07:54:30;;;;;;;10.35;8.90;;;;;;;5.48;100.00;62565.00;5105682;28;20232;-78
2023/12/31 07:56:58;;;;;;;12.30;8.95;;;;;;;5.57;100.00;62566.69;5107283;28;20225;-78
2023/12/31 07:59:25;;;;;;;14.90;8.35;;;;;;;5.71;100.00;62591.22;5107822;28;20540;-78
2023/12/31 08:01:52;;;;;;;11.50;8.60;;;;;;;5.78;100.00;62593.38;5106689;28;20196;-79
2023/12/31 08:04:19;;;;;;;11.43;7.85;;;;;;;5.87;100.00;62604.69;5106868;28;20231;-78
2023/12/31 08:06:46;;;;;;;10.82;8.75;;;;;;;5.96;100.00;62610.91;5109359;28;20228;-78
2023/12/31 08:09:15;;;;;;;10.00;8.40;;;;;;;6.07;100.00;62622.78;5105788;28;20215;-76
2023/12/31 08:11:43;;;;;;;12.63;7.72;;;;;;;6.04;100.00;62619.19;5106904;28;20196;-76
2023/12/31 08:14:10;;;;;;;14.15;8.90;;;;;;;6.15;100.00;62628.50;5107391;28;20230;-78
2023/12/31 08:16:38;;;;;;;9.23;7.80;;;;;;;6.19;100.00;62634.63;5105676;28;20258;-78
2023/12/31 08:19:05;;;;;;;11.02;8.73;;;;;;;6.22;100.00;62637.72;5107095;28;20272;-77
2023/12/31 08:21:32;;;;;;;9.57;8.18;;;;;;;6.12;100.00;62627.94;5110660;28;20252;-78
2023/12/31 08:23:59;;;;;;;12.80;9.30;;;;;;;6.11;100.00;62626.41;5105502;28;20224;-77
2023/12/31 08:26:26;;;;;;;11.88;9.77;;;;;;;6.14;100.00;62627.47;5106228;28;20247;-78
2023/12/31 08:28:54;;;;;;;13.18;10.55;;;;;;;6.20;100.00;62638.19;5107043;28;20196;-78
2023/12/31 08:31:21;;;;;;;17.35;11.38;;;;;;;6.30;100.00;62649.00;5105410;28;20196;-79
2023/12/31 08:33:48;;;;;;;16.35;11.75;;;;;;;6.34;100.00;62647.56;5106779;28;20194;-79
2023/12/31 08:36:15;;;;;;;15.55;11.65;;;;;;;6.42;100.00;62658.34;5110595;28;20203;-76
2023/12/31 08:38:42;;;;;;;15.30;10.88;;;;;;;6.47;100.00;62669.06;5106733;28;20214;-77
2023/12/31 08:41:09;;;;;;;16.55;11.07;;;;;;;6.51;100.00;62665.63;5109613;28;20460;-78
2023/12/31 08:43:36;;;;;;;14.02;10.75;;;;;;;6.63;100.00;62677.47;5114362;28;20412;-78
2023/12/31 08:46:04;;;;;;;13.75;10.00;;;;;;;6.57;100.00;62673.81;5110370;28;20216;-78
2023/12/31 08:48:31;;;;;;;13.13;10.00;;;;;;;6.67;100.00;62689.72;5115004;28;20196;-76
2023/12/31 08:50:58;;;;;;;16.40;11.35;;;;;;;6.79;100.00;62699.56;5111710;28;20215;-78
2023/12/31 08:53:25;;;;;;;14.70;10.30;;;;;;;6.77;100.00;62689.91;5110510;28;20196;-79
2023/12/31 08:55:52;;;;;;;21.13;10.48;;;;;;;6.81;100.00;62698.56;5111889;28;20249;-79
2023/12/31 08:58:19;;;;;;;15.07;10.02;;;;;;;6.88;100.00;62708.31;5113379;28;20219;-78
2023/12/31 09:00:46;;;;;;;12.80;10.57;;;;;;;6.87;100.00;62702.22;5109706;28;20548;-79
2023/12/31 09:03:15;;;;;;;12.93;9.88;;;;;;;7.09;100.00;62724.41;5113000;28;20196;-78
2023/12/31 09:05:42;;;;;;;14.85;10.30;;;;;;;7.24;100.00;62739.88;5110568;28;20231;-79
2023/12/31 09:08:08;;;;;;;13.73;9.02;;;;;;;7.24;100.00;62742.94;5109371;28;20228;-78
2023/12/31 09:10:36;;;;;;;11.25;8.77;;;;;;;7.32;100.00;62745.59;5109305;28;20253;-79
2023/12/31 09:13:03;;;;;;;12.75;8.15;;;;;;;7.52;100.00;62771.31;5111666;28;20203;-78
2023/12/31 09:15:30;;;;;;;9.38;7.65;;;;;;;7.61;100.00;62776.03;5112592;28;20249;-79
2023/12/31 09:17:57;;;;;;;11.23;7.10;;;;;;;7.70;100.00;62787.34;5112291;28;20233;-77
2023/12/31 09:20:25;;;;;;;9.00;7.50;;;;;;;7.78;100.00;62800.69;5112399;28;20524;-77
2023/12/31 09:22:53;;;;;;;8.38;6.40;;;;;;;7.77;100.00;62797.09;5111262;28;20261;-78
2023/12/31 09:25:21;;;;;;;9.68;7.70;;;;;;;7.83;100.00;62798.25;5109045;28;20280;-79
2023/12/31 09:27:49;;;;;;;8.52;6.97;;;;;;;7.86;100.00;62809.47;5110563;28;20235;-78
2023/12/31 09:30:16;;;;;;;10.75;8.40;;;;;;;8.04;100.00;62825.00;5112673;28;20220;-77
2023/12/31 09:32:42;;;;;;;12.73;9.05;;;;;;;8.29;100.00;62852.84;5112267;28;20200;-78
2023/12/31 09:35:09;;;;;;;15.55;10.55;;;;;;;8.44;99.66;62865.81;5109639;28;20216;-78
2023/12/31 09:37:37;;;;;;;13.82;10.13;;;;;;;8.56;98.57;62880.75;5111034;28;20196;-78
2023/12/31 09:40:06;;;;;;;14.60;11.07;;;;;;;8.65;97.96;62888.00;5108246;28;20253;-79
2023/12/31 09:42:47;;;;;;;13.27;11.38;;;;;;;8.59;97.28;62881.31;5109438;28;20200;-78
2023/12/31 09:45:15;;;;;;;18.92;11.38;;;;;;;8.39;96.95;62861.16;5110710;28;20216;-77
2023/12/31 09:47:43;;;;;;;17.95;11.25;;;;;;;8.34;98.38;62855.47;5114920;28;20220;-78
2023/12/31 09:50:10;;;;;;;23.92;12.68;;;;;;;8.26;99.06;62850.28;5109257;28;20231;-78
2023/12/31 09:52:41;;;;;;;17.35;11.75;;;;;;;8.40;99.43;62866.75;5109130;28;20203;-78
2023/12/31 09:55:10;;;;;;;16.92;11.98;;;;;;;8.58;99.24;62878.25;5109867;28;20444;-78
2023/12/31 09:57:42;;;;;;;20.65;13.40;;;;;;;8.74;97.45;62899.34;5109020;28;20217;-78
2023/12/31 10:00:16;;;;;;;14.68;12.15;;;;;;;8.78;95.25;62898.91;5108885;28;20254;-78
2023/12/31 10:02:45;;;;;;;21.38;12.63;;;;;;;8.77;94.83;62905.50;5108628;28;20276;-77
2023/12/31 10:05:15;;;;;;;21.05;13.18;;;;;;;8.94;95.11;62923.06;5112156;28;20413;-78
2023/12/31 10:07:46;;;;;;;17.75;10.98;;;;;;;8.86;93.88;62911.72;5107710;28;20230;-79
2023/12/31 10:10:15;;;;;;;15.65;11.75;;;;;;;8.74;95.07;62894.78;5108183;28;20211;-78
2023/12/31 10:12:44;;;;;;;15.38;12.00;;;;;;;8.65;95.88;62887.50;5108706;28;20203;-78
2023/12/31 10:15:23;;;;;;;16.30;12.73;;;;;;;8.95;96.72;62916.47;5108419;28;20674;-77
2023/12/31 10:18:04;;;;;;;16.85;11.43;;;;;;;9.13;93.28;62940.16;5107920;28;20238;-78
2023/12/31 10:20:45;;;;;;;18.48;12.45;;;;;;;9.06;93.11;62934.97;5113273;28;20211;-79
2023/12/31 10:23:31;;;;;;;13.77;10.48;;;;;;;9.22;91.68;62946.41;5107524;28;20210;-78
2023/12/31 10:26:05;;;;;;;16.75;11.02;;;;;;;9.09;91.94;62932.97;5091429;28;20212;-79
2023/12/31 10:28:33;;;;;;;13.15;10.65;;;;;;;9.26;92.08;62948.00;5109779;28;20215;-77
2023/12/31 10:31:04;;;;;;;14.40;9.38;;;;;;;9.25;89.50;62950.03;5109007;28;20242;-77
2023/12/31 10:33:34;;;;;;;15.32;10.25;;;;;;;9.27;90.29;62949.03;5109387;28;20190;-78
2023/12/31 10:36:06;;;;;;;12.50;9.82;;;;;;;9.26;90.60;62951.06;5110504;28;20211;-78
2023/12/31 10:38:45;;;;;;;11.63;8.85;;;;;;;9.58;89.02;62983.63;5108644;28;20192;-78
2023/12/31 10:41:17;;;;;;;10.20;9.07;;;;;;;9.71;88.04;62999.09;5107044;28;20218;-77
2023/12/31 10:43:44;;;;;;;12.93;8.82;;;;;;;9.78;87.20;63001.25;5108769;28;20204;-79
2023/12/31 10:46:11;;;;;;;10.65;8.13;;;;;;;9.58;87.47;62983.63;5109377;28;20435;-78
2023/12/31 10:48:38;;;;;;;10.73;8.43;;;;;;;9.33;88.75;62957.78;5109021;28;20357;-78
2023/12/31 10:51:07;;;;;;;12.50;9.68;;;;;;;9.42;89.71;62964.56;5113818;28;20192;-77
2023/12/31 10:53:34;;;;;;;10.63;8.02;;;;;;;9.60;88.73;62988.22;5111645;28;20200;-78
2023/12/31 10:56:03;;;;;;;13.23;9.05;;;;;;;9.73;88.38;62999.16;5107874;28;20215;-78
2023/12/31 10:58:29;;;;;;;12.00;9.00;;;;;;;9.99;88.16;63028.06;5110156;28;20203;-77
2023/12/31 11:00:57;;;;;;;11.07;8.98;;;;;;;10.10;87.03;63039.97;5107038;28;20324;-78
2023/12/31 11:03:24;;;;;;;8.73;7.82;;;;;;;10.20;86.31;63047.78;5107882;28;20222;-78
2023/12/31 11:05:51;;;;;;;8.95;8.02;;;;;;;10.16;85.57;63046.16;5112948;28;20232;-78
2023/12/31 11:08:19;;;;;;;9.55;7.65;;;;;;;9.99;86.12;63026.03;5111031;28;20250;-78
2023/12/31 11:10:46;;;;;;;8.95;8.02;;;;;;;10.18;86.23;63045.19;5107114;28;20532;-79
2023/12/31 11:13:15;;;;;;;10.10;8.30;;;;;;;10.33;84.93;63061.22;5110849;28;20195;-79
2023/12/31 11:15:42;;;;;;;11.90;7.30;;;;;;;10.46;84.15;63079.25;5107914;28;20231;-77
2023/12/31 11:18:34;;;;;;;10.18;8.32;;;;;;;10.55;83.32;63083.47;5108975;28;20196;-78
2023/12/31 11:21:28;;;;;;;11.88;8.27;;;;;;;10.37;81.87;63065.34;5085675;28;20223;-78
2023/12/31 11:24:00;;;;;;;8.05;7.18;;;;;;;10.43;82.36;63068.50;5095070;28;20208;-78
2023/12/31 11:26:29;;;;;;;10.13;8.73;;;;;;;10.32;86.91;63062.22;5109043;28;20188;-80
2023/12/31 11:28:57;;;;;;;10.07;8.18;;;;;;;10.44;91.81;63075.16;5109588;28;20254;-78